createdAt,value
2023-01-23T00:00:14.662Z,100.00
2023-01-23T01:03:37.509Z,100.00
2023-01-23T01:33:26.711Z,100.00
2023-01-23T02:41:49.682Z,100.00
2023-01-23T03:10:02.056Z,99.94
2023-01-23T03:25:47.199Z,100.00
2023-01-23T03:28:33.393Z,100.00
2023-01-23T03:53:26.685Z,99.65
2023-01-23T04:05:09.655Z,99.89
2023-01-23T04:29:29.957Z,99.96
2023-01-23T04:31:57.433Z,99.78
2023-01-23T06:13:12.031Z,99.79
2023-01-23T06:37:41.687Z,99.64
2023-01-23T06:40:13.363Z,99.08
2023-01-23T06:51:29.925Z,99.48
2023-01-23T06:58:16.848Z,99.72
2023-01-23T07:00:44.650Z,99.58
2023-01-23T07:03:18.045Z,99.65
2023-01-23T07:05:45.536Z,99.49
2023-01-23T07:08:13.035Z,99.24
2023-01-23T07:10:40.741Z,99.42
2023-01-23T07:13:09.780Z,99.95
2023-01-23T07:15:39.677Z,99.56
2023-01-23T07:18:09.793Z,99.02
2023-01-23T07:20:38.720Z,99.65
2023-01-23T07:23:06.204Z,99.59
2023-01-23T07:25:33.695Z,99.47
2023-01-23T07:28:01.281Z,99.96
2023-01-23T07:30:29.488Z,100.00
2023-01-23T07:32:58.279Z,99.95
2023-01-23T07:35:26.116Z,99.79
2023-01-23T07:37:53.497Z,99.64
2023-01-23T07:40:21.424Z,99.62
2023-01-23T07:42:52.995Z,99.32
2023-01-23T07:45:20.715Z,99.81
2023-01-23T07:47:48.078Z,99.46
2023-01-23T07:50:15.688Z,99.58
2023-01-23T07:52:43.409Z,99.29
2023-01-23T07:55:10.789Z,99.41
2023-01-23T07:57:38.253Z,99.78
2023-01-23T08:00:06.215Z,100.00
2023-01-23T08:02:33.695Z,99.92
2023-01-23T08:05:01.917Z,99.30
2023-01-23T08:07:29.502Z,99.07
2023-01-23T08:09:57.095Z,99.62
2023-01-23T08:12:24.821Z,99.41
2023-01-23T08:14:52.299Z,99.58
2023-01-23T08:17:19.914Z,99.47
2023-01-23T08:19:47.390Z,99.48
2023-01-23T08:22:14.997Z,99.53
2023-01-23T08:24:42.492Z,99.22
2023-01-23T08:27:09.953Z,99.33
2023-01-23T08:29:37.547Z,98.98
2023-01-23T08:32:05.301Z,99.08
2023-01-23T08:34:32.872Z,98.76
2023-01-23T08:37:00.263Z,98.72
2023-01-23T08:39:28.216Z,98.37
2023-01-23T08:41:55.710Z,98.87
2023-01-23T08:44:24.241Z,98.51
2023-01-23T08:46:52.082Z,97.90
2023-01-23T08:49:20.320Z,98.04
2023-01-23T08:51:47.890Z,97.89
2023-01-23T08:54:15.726Z,98.12
2023-01-23T08:56:43.328Z,97.45
2023-01-23T08:59:10.706Z,97.46
2023-01-23T09:05:19.236Z,98.07
2023-01-23T09:07:47.784Z,97.38
2023-01-23T09:10:15.492Z,98.03
2023-01-23T09:12:43.342Z,97.95
2023-01-23T09:15:11.439Z,97.80
2023-01-23T09:17:39.036Z,98.08
2023-01-23T09:20:07.344Z,97.57
2023-01-23T09:22:34.703Z,97.81
2023-01-23T09:25:02.064Z,98.11
2023-01-23T09:27:29.667Z,97.83
2023-01-23T09:29:57.163Z,97.38
2023-01-23T09:32:24.644Z,97.26
2023-01-23T09:34:52.114Z,96.59
2023-01-23T09:37:19.599Z,96.98
2023-01-23T09:39:47.332Z,96.74
2023-01-23T09:42:21.399Z,96.85
2023-01-23T09:44:51.398Z,97.17
2023-01-23T09:47:39.166Z,96.69
2023-01-23T09:50:08.813Z,96.72
2023-01-23T09:52:40.725Z,96.41
2023-01-23T09:55:25.274Z,96.21
2023-01-23T09:57:55.857Z,96.65
2023-01-23T10:00:27.685Z,97.12
2023-01-23T10:02:56.854Z,97.50
2023-01-23T10:05:33.290Z,97.01
2023-01-23T10:08:27.891Z,97.44
2023-01-23T10:11:09.068Z,96.81
2023-01-23T10:13:49.175Z,96.14
2023-01-23T10:16:50.356Z,96.79
2023-01-23T10:19:24.666Z,96.96
2023-01-23T10:21:59.360Z,96.82
2023-01-23T10:24:49.387Z,96.05
2023-01-23T10:27:18.798Z,96.53
2023-01-23T10:30:02.618Z,96.08
2023-01-23T10:32:32.113Z,96.37
2023-01-23T10:35:12.733Z,95.80
2023-01-23T10:37:54.198Z,96.68
2023-01-23T10:40:42.215Z,96.78
2023-01-23T10:43:14.964Z,96.54
2023-01-23T10:45:43.472Z,96.28
2023-01-23T10:48:38.122Z,95.53
2023-01-23T10:51:31.376Z,95.17
2023-01-23T10:54:30.876Z,95.50
2023-01-23T10:57:18.565Z,95.37
2023-01-23T11:00:20.857Z,95.43
2023-01-23T11:02:48.520Z,95.79
2023-01-23T11:05:52.960Z,96.05
2023-01-23T11:08:38.267Z,96.19
2023-01-23T11:11:14.858Z,95.60
2023-01-23T11:13:44.273Z,95.97
2023-01-23T11:16:21.251Z,96.15
2023-01-23T11:19:05.507Z,96.01
2023-01-23T11:21:57.351Z,95.81
2023-01-23T11:24:38.386Z,95.89
2023-01-23T11:27:17.758Z,96.37
2023-01-23T11:29:58.916Z,95.71
2023-01-23T11:32:26.359Z,95.58
2023-01-23T11:35:01.075Z,95.43
2023-01-23T11:37:32.516Z,95.36
2023-01-23T11:40:20.038Z,95.57
2023-01-23T11:42:48.720Z,95.38
2023-01-23T11:45:43.808Z,95.65
2023-01-23T11:48:20.197Z,94.97
2023-01-23T11:50:56.190Z,95.07
2023-01-23T11:53:42.275Z,94.62
2023-01-23T11:56:45.993Z,95.76
2023-01-23T11:59:22.785Z,95.55
2023-01-23T12:02:03.094Z,95.04
2023-01-23T12:04:44.649Z,94.98
2023-01-23T12:07:18.749Z,95.24
2023-01-23T12:09:48.977Z,96.17
2023-01-23T12:12:19.937Z,95.88
2023-01-23T12:14:59.913Z,94.96
2023-01-23T12:17:33.877Z,95.37
2023-01-23T12:20:38.428Z,95.64
2023-01-23T12:23:16.945Z,95.92
2023-01-23T12:26:08.193Z,95.53
2023-01-23T12:28:57.144Z,96.13
2023-01-23T12:32:04.031Z,95.37
2023-01-23T12:34:59.317Z,94.22
2023-01-23T12:38:04.237Z,92.55
2023-01-23T12:40:51.036Z,92.93
2023-01-23T12:43:19.606Z,94.01
2023-01-23T12:45:56.321Z,94.18
2023-01-23T12:48:28.666Z,94.03
2023-01-23T12:51:06.813Z,94.92
2023-01-23T12:53:42.297Z,94.79
2023-01-23T12:56:23.327Z,94.77
2023-01-23T12:58:53.691Z,93.52
2023-01-23T13:01:26.135Z,92.65
2023-01-23T13:03:53.575Z,92.51
2023-01-23T13:06:39.658Z,92.57
2023-01-23T13:09:33.434Z,93.08
2023-01-23T13:12:22.049Z,92.47
2023-01-23T13:15:14.492Z,93.05
2023-01-23T13:17:47.126Z,93.79
2023-01-23T13:20:40.661Z,92.11
2023-01-23T13:23:27.069Z,93.34
2023-01-23T13:26:26.486Z,93.66
2023-01-23T13:28:55.752Z,92.59
2023-01-23T13:31:50.557Z,93.28
2023-01-23T13:34:18.704Z,93.04
2023-01-23T13:36:47.600Z,93.41
2023-01-23T13:39:18.074Z,93.89
2023-01-23T13:41:50.236Z,94.03
2023-01-23T13:44:40.886Z,93.57
2023-01-23T14:21:41.781Z,93.51
2023-01-23T14:24:25.100Z,93.30
2023-01-23T14:27:04.439Z,92.99
2023-01-23T14:29:32.401Z,93.20
2023-01-23T14:31:59.893Z,92.31
2023-01-23T14:34:27.730Z,93.02
2023-01-23T14:37:04.219Z,93.89
2023-01-23T14:39:33.953Z,93.41
2023-01-23T14:50:50.292Z,95.01
2023-01-23T14:57:32.550Z,93.60
2023-01-23T15:00:00.017Z,93.34
2023-01-23T20:33:14.149Z,95.13
2023-01-23T21:24:21.091Z,94.75
2023-01-23T21:52:41.182Z,94.72
2023-01-23T22:17:12.210Z,95.29
2023-01-23T22:23:51.348Z,95.41
2023-01-23T22:49:21.140Z,95.46
2023-01-23T22:56:13.127Z,95.15
2023-01-23T22:59:31.200Z,95.22
2023-01-23T23:11:52.715Z,95.05
